^^

Metar de toute la France(point de départ, Chateauroux, classé dans l'ordre alphabétique actualisée toutes les 30 minutes)






LFBA - Agen/, France
Distance de la station: SSO 307km
Mise à jour: 23/10/2014 07:00
partiellement nuageux
partiellement nuageux
 Wind from calm
Vent: Vent calme
Température: 3°C
Point de Rosée: 3°C
Humidité: 100%
Baromètre: 1027 hPa
Nuages: partiellement nuageux
Visibilité: 8 km
2014/10/23 05:00 LFBA 230500Z AUTO 00000KT 8000 NSC 03/03 Q1027
LFLP - Annecy/, France
Distance de la station: ESE 352km
Mise à jour: 23/10/2014 07:00
partiellement nuageux
partiellement nuageux
 Wind from variable
Vent: variable 4 km/h
Température: 2°C
Point de Rosée: 0°C
Humidité: 87%
Baromètre: 1025 hPa
Nuages: partiellement nuageux
Visibilité: 10 km
2014/10/23 05:00 LFLP 230500Z AUTO VRB02KT 9999 NSC 02/00 Q1025
 
LFOA - Avord/ , France
Distance de la station: ENE 76km
Mise à jour: 23/10/2014 07:00
partiellement nuageux
partiellement nuageux
 Wind from OSO
Vent: OSO 6 km/h
Température: 9°C
Point de Rosée: 8°C
Humidité: 94%
Baromètre: 1026 hPa
Nuages: partiellement nuageux
Visibilité: 9 km
2014/10/23 05:00 LFOA 230500Z AUTO 25003KT 9000 NSC 09/08 Q1026
LFSB - Bale/, France
Distance de la station: ENE 449km
Mise à jour: 23/10/2014 07:00
nuageux
nuageux
 Wind from variable
Vent: variable 7 km/h
Température: 8°C
Wind Chill: 7°C
Point de Rosée: 6°C
Humidité: 87%
Baromètre: 1025 hPa
Nuages: nuageux
Visibilité: 10 km
Nuages details: Quelques Nuages 396 m
nuageux 1524 m
2014/10/23 05:00 LFSB 230500Z VRB04KT 9999 FEW013 BKN050 08/06 Q1025 NOSIG
 
LFOB - Beauvais/, France
Distance de la station: N 296km
Mise à jour: 23/10/2014 07:00
Couvert
Couvert
 Wind from O
Vent: O 7 km/h
Température: 11°C
Point de Rosée: 9°C
Humidité: 88%
Baromètre: 1024 hPa
Nuages: Couvert
Visibilité: 10 km
Nuages details: Couvert 1189 m
2014/10/23 05:00 LFOB 230500Z AUTO 27004KT 9999 OVC039 11/09 Q1024
LFBE - Bergerac/, France
Distance de la station: SSO 240km
Mise à jour: 23/10/2014 07:00
Broulliard, partiellement nuageux
Broulliard, partiellement nuageux
 Wind from E
Vent: E 4 km/h
Température: 2°C
Point de Rosée: 2°C
Humidité: 100%
Baromètre: 1027 hPa
Récapitulatifs: Broulliard
Nuages: partiellement nuageux
Visibilité: 4 km
2014/10/23 05:00 LFBE 230500Z AUTO 08002KT 3600 BR NSC 02/02 Q1027
 
LFMU - Beziers/, France
Distance de la station: SSE 411km
Mise à jour: 23/10/2014 07:00
partiellement nuageux
partiellement nuageux
 Wind from NO
Vent: NO 22 km/h
Température: 13°C
Point de Rosée: 2°C
Humidité: 47%
Baromètre: 1023 hPa
Nuages: partiellement nuageux
Visibilité: 10 km
2014/10/23 05:00 LFMU 230500Z AUTO 31012KT 9999 NSC 13/02 Q1023
LFBZ - Biarritz/, France
Distance de la station: SO 449km
Mise à jour: 23/10/2014 07:00
clair
clair
 Wind from SSE
Vent: SSE 7 km/h
Température: 6°C
Wind Chill: 4°C
Point de Rosée: 5°C
Humidité: 93%
Baromètre: 1027 hPa
Récapitulatifs: clair
Visibilité: supérieure à 10 km
2014/10/23 05:00 LFBZ 230500Z 15004KT CAVOK 06/05 Q1027 NOSIG
 
LFBD - Bordeaux/, France
Distance de la station: SO 289km
Mise à jour: 23/10/2014 07:00

 Wind from SE
Vent: SE 4 km/h
Visibilité: 10 km
2014/10/23 05:00 LFBD 230500Z AUTO 13002KT 9999 4100 NSC 06/05 Q1027
LFAQ - Bray/, France
Distance de la station: N 358km
Mise à jour: 23/10/2014 07:00
Couvert
Couvert
 Wind from SSO
Vent: SSO 9 km/h
Température: 10°C
Wind Chill: 9°C
Point de Rosée: 9°C
Humidité: 94%
Baromètre: 1023 hPa
Nuages: Couvert
Visibilité: 6 km
Nuages details: Quelques Nuages 610 m
Couvert 1189 m
2014/10/23 05:00 LFAQ 230500Z AUTO 20005KT 6000 FEW020 OVC039 10/09 Q1023
 
LFRB - Brest/, France
Distance de la station: ONO 492km
Mise à jour: 23/10/2014 07:00
nuageux
nuageux
 Wind from SSO
Vent: SSO 17 km/h
Température: 14°C
Point de Rosée: 11°C
Humidité: 82%
Baromètre: 1024 hPa
Nuages: nuageux
Visibilité: 10 km
Nuages details: nuageux 884 m
2014/10/23 05:00 LFRB 230500Z 21009KT 9999 BKN029 14/11 Q1024 NOSIG
LFRK - Caen/, France
Distance de la station: NNO 306km
Mise à jour: 23/10/2014 07:00
Couvert
Couvert
 Wind from SO
Vent: SO 17 km/h
Température: 11°C
Point de Rosée: 7°C
Humidité: 77%
Baromètre: 1025 hPa
Nuages: Couvert
Visibilité: 10 km
Nuages details: Couvert 1067 m
2014/10/23 05:00 LFRK 230500Z AUTO 23009KT 9999 OVC035 11/07 Q1025
 
LFMK - Carcassonne/, France
Distance de la station: S 403km
Mise à jour: 23/10/2014 07:00
partiellement nuageux
partiellement nuageux
 Wind from O
Vent: O 20 km/h
Température: 10°C
Wind Chill: 7°C
Point de Rosée: 4°C
Humidité: 67%
Baromètre: 1026 hPa
Nuages: partiellement nuageux
Visibilité: 10 km
2014/10/23 05:00 LFMK 230500Z AUTO 27011KT 9999 NSC 10/04 Q1026
LFMV - Caumont/, France
Distance de la station: SE 410km
Mise à jour: 23/10/2014 07:00
partiellement nuageux
partiellement nuageux
 Wind from NNO
Vent: NNO 37 km/h, Rafale: 57 km/h
Température: 11°C
Point de Rosée: 4°C
Humidité: 62%
Baromètre: 1019 hPa
Nuages: partiellement nuageux
Visibilité: 10 km
2014/10/23 05:00 LFMV 230500Z AUTO 34020G31KT 9999 NSC 11/04 Q1019
 
LFBC - Cazaux/, France
Distance de la station: SO 336km
Mise à jour: 23/10/2014 07:00
Patches of fog, partiellement nuageux
Patches of fog, partiellement nuageux
 Wind from calm
Vent: Vent calme
Température: 5°C
Point de Rosée: 5°C
Humidité: 100%
Baromètre: 1027 hPa
Récapitulatifs: Patches of Fog
Nuages: partiellement nuageux
Visibilité: 1 km
2014/10/23 05:00 LFBC 230500Z AUTO 00000KT 1100 R24/P2000 BCFG NSC 05/05 Q1027
LFPC - Creil/, France
Distance de la station: NNE 278km
Mise à jour: 23/10/2014 07:00
Couvert
Couvert
 Wind from OSO
Vent: OSO 9 km/h
Température: 11°C
Point de Rosée: 9°C
Humidité: 88%
Baromètre: 1024 hPa
Nuages: Couvert
Visibilité: 10 km
Nuages details: Couvert 1128 m
2014/10/23 05:00 LFPC 230500Z AUTO 24005KT 200V260 9999 OVC037 11/09 Q1024
 
LFLB - Chambery/, France
Distance de la station: ESE 348km
Mise à jour: 23/10/2014 07:00
Quelques Nuages
Quelques Nuages
 Wind from variable
Vent: variable 6 km/h
Température: 2°C
Point de Rosée: 2°C
Humidité: 100%
Baromètre: 1025 hPa
Nuages: Quelques Nuages
Visibilité: 10 km
Nuages details: Quelques Nuages 488 m
2014/10/23 05:00 LFLB 230500Z VRB03KT 9999 FEW016 02/02 Q1025 NOSIG
LFOK - Chalons/, France
Distance de la station: NE 287km
Mise à jour: 23/10/2014 07:00

 Wind from SO
Vent: SO 7 km/h
Visibilité: 2 km
2014/10/23 05:00 LFOK 230500Z AUTO 22004KT 1900 0900 R10/P2000 R28/P2000 BCFG OVC002 09/08 Q1025
 
LFOC - Chateaudun/, France
Distance de la station: N 137km
Mise à jour: 23/10/2014 07:00
Couvert
Couvert
 Wind from O
Vent: O 7 km/h
Température: 9°C
Wind Chill: 8°C
Point de Rosée: 8°C
Humidité: 94%
Baromètre: 1026 hPa
Nuages: Couvert
Visibilité: 10 km
Nuages details: Couvert 1097 m
2014/10/23 05:00 LFOC 230500Z AUTO 27004KT 9999 OVC036 09/08 Q1026
LFLX - Chateauroux/, France
Distance de la station: NE 4km
Mise à jour: 23/10/2014 07:00
partiellement nuageux
partiellement nuageux
 Wind from variable
Vent: variable 6 km/h
Température: 7°C
Point de Rosée: 6°C
Humidité: 93%
Baromètre: 1027 hPa
Nuages: partiellement nuageux
Visibilité: 8 km
2014/10/23 05:00 LFLX 230500Z VRB03KT 8000 NSC 07/06 Q1027 NOSIG
 
LFPG - Charles De Gaulle/, France
Distance de la station: NNE 252km
Mise à jour: 23/10/2014 07:00
nuageux
nuageux
 Wind from SSO
Vent: SSO 7 km/h
Température: 11°C
Point de Rosée: 9°C
Humidité: 88%
Baromètre: 1025 hPa
Nuages: nuageux
Visibilité: 10 km
Nuages details: nuageux 884 m
2014/10/23 05:00 LFPG 230500Z 21004KT 9999 BKN029 11/09 Q1025 NOSIG
LFRC - Cherbourg/, France
Distance de la station: NO 390km
Mise à jour: 23/10/2014 07:00
Couvert
Couvert
 Wind from SO
Vent: SO 11 km/h
Température: 12°C
Point de Rosée: 8°C
Humidité: 77%
Baromètre: 1024 hPa
Nuages: Couvert
Visibilité: 10 km
Nuages details: Couvert 975 m
2014/10/23 05:00 LFRC 230500Z AUTO 22006KT 9999 OVC032 12/08 Q1024
 
LFLC - Clermont/, France
Distance de la station: SE 163km
Mise à jour: 23/10/2014 07:00
nuageux
nuageux
 Wind from calm
Vent: Vent calme
Température: 8°C
Point de Rosée: 5°C
Humidité: 82%
Baromètre: 1026 hPa
Nuages: nuageux
Visibilité: 10 km
Nuages details: partiellement nuageux 914 m
nuageux 1402 m
2014/10/23 05:00 LFLC 230500Z 00000KT 9999 SCT030 BKN046 08/05 Q1026 NOSIG
LFBG - Cognac/, France
Distance de la station: SO 200km
Mise à jour: 23/10/2014 07:00
partiellement nuageux
partiellement nuageux
 Wind from calm
Vent: Vent calme
Température: 5°C
Point de Rosée: 4°C
Humidité: 93%
Baromètre: 1027 hPa
Nuages: partiellement nuageux
Visibilité: 10 km
2014/10/23 05:00 LFBG 230500Z AUTO 00000KT 9999 NSC 05/04 Q1027
 
LFBY - Dax/, France
Distance de la station: SSO 411km
Mise à jour: 23/10/2014 07:00
Broulliard, partiellement nuageux
Broulliard, partiellement nuageux
 Wind from calm
Vent: Vent calme
Température: 5°C
Point de Rosée: 5°C
Humidité: 100%
Baromètre: 1027 hPa
Récapitulatifs: Broulliard
Nuages: partiellement nuageux
Visibilité: 5 km
2014/10/23 05:00 LFBY 230500Z 00000KT 4500 BR NSC 05/05 Q1027
LFSD - Dijon/, France
Distance de la station: ENE 261km
Mise à jour: 23/10/2014 07:00
Couvert
Couvert
 Wind from calm
Vent: Vent calme
Température: 6°C
Point de Rosée: 6°C
Humidité: 100%
Baromètre: 1026 hPa
Nuages: Couvert
Visibilité: 9 km
Nuages details: Quelques Nuages 1372 m
nuageux 1646 m
Couvert 2195 m
2014/10/23 05:00 LFSD 230500Z AUTO 00000KT 9000 FEW045 BKN054 OVC072 06/06 Q1026
 
LFRD - Dinard/, France
Distance de la station: NO 342km
Mise à jour: 23/10/2014 07:00
Couvert
Couvert
 Wind from SSO
Vent: SSO 11 km/h
Température: 11°C
Point de Rosée: 7°C
Humidité: 77%
Baromètre: 1025 hPa
Nuages: Couvert
Visibilité: 10 km
Nuages details: Couvert 1036 m
2014/10/23 05:00 LFRD 230500Z AUTO 20006KT 9999 OVC034 11/07 Q1025
LFGJ - Dole/, France
Distance de la station: E 286km
Mise à jour: 23/10/2014 07:00
partiellement nuageux
partiellement nuageux
 Wind from E
Vent: E 4 km/h
Température: 6°C
Point de Rosée: 5°C
Humidité: 93%
Baromètre: 1026 hPa
Nuages: partiellement nuageux
Visibilité: 10 km
2014/10/23 05:00 LFGJ 230500Z AUTO 09002KT 9999 NSC 06/05 Q1026
 
LFOE - Evreux/, France
Distance de la station: N 247km
Mise à jour: 23/10/2014 07:00
Couvert
Couvert
 Wind from O
Vent: O 7 km/h
Température: 10°C
Wind Chill: 9°C
Point de Rosée: 7°C
Humidité: 82%
Baromètre: 1025 hPa
Nuages: Couvert
Visibilité: 10 km
Nuages details: Couvert 1128 m
2014/10/23 05:00 LFOE 230500Z AUTO 27004KT 9999 OVC037 10/07 Q1025
LFMT - Frejorgues/, France
Distance de la station: SSE 403km
Mise à jour: 23/10/2014 07:00
clair
clair
 Wind from NO
Vent: NO 11 km/h
Température: 10°C
Wind Chill: 8°C
Point de Rosée: 2°C
Humidité: 58%
Baromètre: 1022 hPa
Récapitulatifs: clair
Visibilité: supérieure à 10 km
2014/10/23 05:00 LFMT 230500Z 32006KT CAVOK 10/02 Q1022 NOSIG
 
LFMI - Istres/, France
Distance de la station: SE 446km
Mise à jour: 23/10/2014 07:00
partiellement nuageux
partiellement nuageux
 Wind from NNO
Vent: NNO 44 km/h, Rafale: 65 km/h
Température: 11°C
Point de Rosée: 3°C
Humidité: 58%
Baromètre: 1018 hPa
Nuages: partiellement nuageux
Visibilité: 10 km
2014/10/23 05:00 LFMI 230500Z AUTO 33024G35KT 9999 NSC 11/03 Q1018
LFLS - Grenoble/, France
Distance de la station: ESE 323km
Mise à jour: 23/10/2014 07:00
partiellement nuageux
partiellement nuageux
 Wind from variable
Vent: variable 4 km/h
Température: 3°C
Point de Rosée: 2°C
Humidité: 93%
Baromètre: 1025 hPa
Nuages: partiellement nuageux
Visibilité: 10 km
2014/10/23 05:00 LFLS 230500Z AUTO VRB02KT 9999 NSC 03/02 Q1025
 
LFBH - La Rochelle/, France
Distance de la station: OSO 229km
Mise à jour: 23/10/2014 07:00
Quelques Nuages
Quelques Nuages
 Wind from SE
Vent: SE 9 km/h
Température: 9°C
Wind Chill: 7°C
Point de Rosée: 8°C
Humidité: 94%
Baromètre: 1026 hPa
Nuages: Quelques Nuages
Visibilité: 10 km
Nuages details: Quelques Nuages 914 m
2014/10/23 05:00 LFBH 230500Z AUTO 14005KT 9999 FEW030 09/08 Q1026
LFRI - La Roche Sur Yon/, France
Distance de la station: O 233km
Mise à jour: 23/10/2014 07:00
nuageux
nuageux
 Wind from SSE
Vent: SSE 9 km/h
Température: 8°C
Wind Chill: 6°C
Point de Rosée: 7°C
Humidité: 93%
Baromètre: 1026 hPa
Nuages: nuageux
Visibilité: 10 km
Nuages details: nuageux 884 m
nuageux 2804 m
2014/10/23 05:00 LFRI 230500Z AUTO 15005KT 9999 BKN029 BKN092 08/07 Q1026
 
LFOH - Le Havre/, France
Distance de la station: NNO 323km
Mise à jour: 23/10/2014 07:00
Couvert
Couvert
 Wind from SO
Vent: SO 20 km/h
Température: 12°C
Point de Rosée: 9°C
Humidité: 82%
Baromètre: 1024 hPa
Nuages: Couvert
Visibilité: 10 km
Nuages details: Couvert 1006 m
2014/10/23 05:00 LFOH 230500Z AUTO 22011KT 9999 OVC033 12/09 Q1024
LFRM - Le Mans/, France
Distance de la station: NO 166km
Mise à jour: 23/10/2014 07:00
partiellement nuageux
partiellement nuageux
 Wind from SSO
Vent: SSO 4 km/h
Température: 8°C
Point de Rosée: 7°C
Humidité: 93%
Baromètre: 1026 hPa
Nuages: partiellement nuageux
Visibilité: 10 km
Nuages details: partiellement nuageux 1219 m
2014/10/23 05:00 LFRM 230500Z AUTO 21002KT 9999 SCT040 08/07 Q1026
 
LFRJ - Landivisiau/, France
Distance de la station: ONO 476km
Mise à jour: 23/10/2014 07:00
Couvert
Couvert
 Wind from SSO
Vent: SSO 13 km/h
Température: 12°C
Point de Rosée: 10°C
Humidité: 88%
Baromètre: 1024 hPa
Nuages: Couvert
Visibilité: 10 km
Nuages details: Quelques Nuages 671 m
Couvert 853 m
2014/10/23 05:00 LFRJ 230500Z AUTO 20007KT 9999 FEW022 OVC028 12/10 Q1024
LFRO - Lannion/, France
Distance de la station: ONO 441km
Mise à jour: 23/10/2014 07:00
Couvert
Couvert
 Wind from SSE
Vent: SSE 9 km/h
Température: 11°C
Point de Rosée: 9°C
Humidité: 88%
Baromètre: 1024 hPa
Nuages: Couvert
Visibilité: 10 km
Nuages details: Couvert 823 m
2014/10/23 05:00 LFRO 230500Z AUTO 15005KT 9999 OVC027 11/09 Q1024
 
LFRL - Lanveoc/, France
Distance de la station: ONO 485km
Mise à jour: 23/10/2014 07:00

 Wind from SSO
Vent: SSO 15 km/h
Visibilité: 10 km
2014/10/23 05:00 LFRL 230500Z AUTO 21008KT 9999 3900 FEW015 BKN022 OVC031 14/12 Q1024
LFBL - Limoges/, France
Distance de la station: SSO 113km
Mise à jour: 23/10/2014 07:00
Broulliard, partiellement nuageux
Broulliard, partiellement nuageux
 Wind from calm
Vent: Vent calme
Température: 6°C
Point de Rosée: 5°C
Humidité: 93%
Baromètre: 1026 hPa
Récapitulatifs: Broulliard
Nuages: partiellement nuageux
Visibilité: 5 km
2014/10/23 05:00 LFBL 230500Z AUTO 00000KT 5000 BR NSC 06/05 Q1026
 
LFQQ - Lille/, France
Distance de la station: NNE 430km
Mise à jour: 23/10/2014 07:00
nuageux
nuageux
 Wind from SSO
Vent: SSO 9 km/h
Température: 10°C
Wind Chill: 9°C
Point de Rosée: 9°C
Humidité: 94%
Baromètre: 1023 hPa
Nuages: nuageux
Visibilité: 10 km
Nuages details: nuageux 914 m
2014/10/23 05:00 LFQQ 230500Z 20005KT 9999 BKN030 10/09 Q1023 NOSIG
LFRH - Lorient/, France
Distance de la station: ONO 401km
Mise à jour: 23/10/2014 07:00
Couvert
Couvert
 Wind from ENE
Vent: ENE 6 km/h
Température: 8°C
Point de Rosée: 8°C
Humidité: 100%
Baromètre: 1025 hPa
Nuages: Couvert
Visibilité: 10 km
Nuages details: Quelques Nuages 762 m
Couvert 1097 m
2014/10/23 05:00 LFRH 230500Z AUTO 07003KT 9999 FEW025 OVC036 08/08 Q1025
 
LFLY - Lyon/, France
Distance de la station: ESE 279km
Mise à jour: 23/10/2014 07:00
partiellement nuageux
partiellement nuageux
 Wind from variable
Vent: variable 4 km/h
Température: 6°C
Point de Rosée: 5°C
Humidité: 93%
Baromètre: 1026 hPa
Nuages: partiellement nuageux
Visibilité: 10 km
2014/10/23 05:00 LFLY 230500Z AUTO VRB02KT 9999 NSC 06/05 Q1026
LFLL - Lyon/Satolas, France
Distance de la station: ESE 287km
Mise à jour: 23/10/2014 07:00
clair
clair
 Wind from calm
Vent: Vent calme
Température: 5°C
Point de Rosée: 4°C
Humidité: 93%
Baromètre: 1025 hPa
Récapitulatifs: clair
Visibilité: supérieure à 10 km
2014/10/23 05:00 LFLL 230500Z 00000KT CAVOK 05/04 Q1025 NOSIG
 
LFSX - Luxeuil/, France
Distance de la station: ENE 366km
Mise à jour: 23/10/2014 07:00
partiellement nuageux
partiellement nuageux
 Wind from calm
Vent: Vent calme
Température: 5°C
Point de Rosée: 5°C
Humidité: 100%
Baromètre: 1026 hPa
Nuages: partiellement nuageux
Visibilité: 7 km
2014/10/23 05:00 LFSX 230500Z AUTO 00000KT 7000 NSC 05/05 Q1026
LFJR - Marce/, France
Distance de la station: NO 134km
Mise à jour: 23/10/2014 07:00
Brouillard ou brume, Few clouds
Brouillard ou brume, Few clouds
 Wind from E
Vent: E 4 km/h
Température: 4°C
Point de Rosée: 3°C
Humidité: 93%
Baromètre: 1026 hPa
Récapitulatifs: Brouillard ou brume
Nuages: Quelques Nuages
Visibilité: 0 km
Nuages details: Quelques Nuages 1036 m
2014/10/23 05:00 LFJR 230500Z AUTO 09002KT 0300 R26/1200U FG FEW034 04/03 Q1026
 
LFML - Marseille/, France
Distance de la station: SE 466km
Mise à jour: 23/10/2014 07:00
clair
clair
 Wind from NO
Vent: NO 54 km/h
Température: 12°C
Point de Rosée: 3°C
Humidité: 54%
Baromètre: 1016 hPa
Récapitulatifs: clair
Visibilité: supérieure à 10 km
2014/10/23 05:00 LFML 230500Z 31029KT CAVOK 12/03 Q1016 NOSIG
LFPM - Melun/, France
Distance de la station: NNE 213km
Mise à jour: 23/10/2014 07:00
nuageux
nuageux
 Wind from SO
Vent: SO 7 km/h
Température: 10°C
Wind Chill: 9°C
Point de Rosée: 9°C
Humidité: 94%
Baromètre: 1025 hPa
Nuages: nuageux
Visibilité: 9 km
Nuages details: nuageux 853 m
2014/10/23 05:00 LFPM 230500Z AUTO 22004KT 9000 BKN028 10/09 Q1025
 
LFJL - Metz-Nancy-Lorra/, France
Distance de la station: NE 416km
Mise à jour: 23/10/2014 07:00
partiellement nuageux
partiellement nuageux
 Wind from SO
Vent: SO 15 km/h
Température: 7°C
Wind Chill: 4°C
Point de Rosée: 5°C
Humidité: 87%
Baromètre: 1024 hPa
Nuages: partiellement nuageux
Visibilité: 10 km
2014/10/23 05:00 LFJL 230500Z AUTO 22008KT 9999 NSC 07/05 Q1024
LFBM - Mont-De-Marsan/, France
Distance de la station: SSO 365km
Mise à jour: 23/10/2014 07:00
partiellement nuageux
partiellement nuageux
 Wind from ESE
Vent: ESE 4 km/h
Température: 2°C
Point de Rosée: 1°C
Humidité: 93%
Baromètre: 1027 hPa
Nuages: partiellement nuageux
Visibilité: 10 km
2014/10/23 05:00 LFBM 230500Z AUTO 12002KT 9999 NSC 02/01 Q1027
 
LFSO - Nancy/, France
Distance de la station: ENE 375km
Mise à jour: 23/10/2014 07:00
Couvert
Couvert
 Wind from SO
Vent: SO 9 km/h
Température: 5°C
Wind Chill: 3°C
Point de Rosée: 5°C
Humidité: 100%
Baromètre: 1025 hPa
Nuages: Couvert
Visibilité: 9 km
Nuages details: Couvert 1463 m
2014/10/23 05:00 LFSO 230500Z AUTO 23005KT 9000 OVC048 05/05 Q1025
LFRS - Nantes/, France
Distance de la station: O 252km
Mise à jour: 23/10/2014 07:00
nuageux
nuageux
 Wind from SSE
Vent: SSE 6 km/h
Température: 8°C
Point de Rosée: 7°C
Humidité: 93%
Baromètre: 1026 hPa
Nuages: nuageux
Visibilité: 10 km
Nuages details: nuageux 1006 m
2014/10/23 05:00 LFRS 230500Z 16003KT 9999 BKN033 08/07 Q1026 NOSIG
 
LFTW - Nimes/, France
Distance de la station: SE 402km
Mise à jour: 23/10/2014 07:00
partiellement nuageux
partiellement nuageux
 Wind from N
Vent: N 33 km/h, Rafale: 54 km/h
Température: 11°C
Point de Rosée: 0°C
Humidité: 47%
Baromètre: 1020 hPa
Nuages: partiellement nuageux
Visibilité: 10 km
2014/10/23 05:00 LFTW 230500Z AUTO 35018G29KT 9999 // NSC 11/00 Q1020
LFMO - Orange/, France
Distance de la station: SE 387km
Mise à jour: 23/10/2014 07:00
partiellement nuageux
partiellement nuageux
 Wind from NO
Vent: NO 31 km/h, Rafale: 50 km/h
Température: 10°C
Wind Chill: 7°C
Point de Rosée: 4°C
Humidité: 67%
Baromètre: 1020 hPa
Nuages: partiellement nuageux
Visibilité: 10 km
2014/10/23 05:00 LFMO 230500Z AUTO 32017G27KT 9999 NSC 10/04 Q1020
 
LFOJ - Orleans/, France
Distance de la station: N 128km
Mise à jour: 23/10/2014 07:00
Couvert
Couvert
 Wind from O
Vent: O 11 km/h
Température: 10°C
Wind Chill: 8°C
Point de Rosée: 8°C
Humidité: 88%
Baromètre: 1026 hPa
Nuages: Couvert
Visibilité: 10 km
Nuages details: Couvert 1158 m
2014/10/23 05:00 LFOJ 230500Z AUTO 26006KT 9999 OVC038 10/08 Q1026
LFPB - Paris/, France
Distance de la station: NNE 246km
Mise à jour: 23/10/2014 07:00
Couvert
Couvert
 Wind from OSO
Vent: OSO 7 km/h
Température: 11°C
Point de Rosée: 9°C
Humidité: 88%
Baromètre: 1025 hPa
Nuages: Couvert
Visibilité: 10 km
Nuages details: Couvert 975 m
2014/10/23 05:00 LFPB 230500Z AUTO 25004KT 9999 OVC032 11/09 Q1025
 
LFPO - Paris/Orly/, France
Distance de la station: NNE 218km
Mise à jour: 23/10/2014 07:00
nuageux
nuageux
 Wind from OSO
Vent: OSO 6 km/h
Température: 11°C
Point de Rosée: 8°C
Humidité: 82%
Baromètre: 1025 hPa
Nuages: nuageux
Visibilité: 10 km
Nuages details: nuageux 914 m
2014/10/23 05:00 LFPO 230500Z 25003KT 210V280 9999 BKN030 11/08 Q1025 NOSIG
LFMP - Perpignan/, France
Distance de la station: SSE 465km
Mise à jour: 23/10/2014 07:00
partiellement nuageux
partiellement nuageux
 Wind from NNO
Vent: NNO 22 km/h
Température: 14°C
Point de Rosée: 5°C
Humidité: 55%
Baromètre: 1022 hPa
Nuages: partiellement nuageux
Visibilité: 10 km
2014/10/23 05:00 LFMP 230500Z AUTO 33012KT 290V350 9999 NSC 14/05 Q1022
 
LFBI - Poitiers/, France
Distance de la station: OSO 108km
Mise à jour: 23/10/2014 07:00
Broulliard, partiellement nuageux
Broulliard, partiellement nuageux
 Wind from S
Vent: S 6 km/h
Température: 4°C
Point de Rosée: 4°C
Humidité: 100%
Baromètre: 1027 hPa
Récapitulatifs: Broulliard
Nuages: partiellement nuageux
Visibilité: 5 km
2014/10/23 05:00 LFBI 230500Z AUTO 19003KT 4900 BR NSC 04/04 Q1027
LFRQ - Quimper/, France
Distance de la station: ONO 458km
Mise à jour: 23/10/2014 07:00
Faible bruine, Couvert
Faible bruine, Couvert
 Wind from S
Vent: S 6 km/h
Température: 11°C
Point de Rosée: 10°C
Humidité: 94%
Baromètre: 1024 hPa
Récapitulatifs: Light Drizzle
Nuages: Couvert
Visibilité: 10 km
Nuages details: nuageux 579 m
Couvert 762 m
2014/10/23 05:00 LFRQ 230500Z AUTO 19003KT 9999 -DZ BKN019 OVC025 11/10 Q1024
 
LFRN - Rennes/, France
Distance de la station: ONO 291km
Mise à jour: 23/10/2014 07:00
Couvert
Couvert
 Wind from variable
Vent: variable 2 km/h
Température: 9°C
Point de Rosée: 8°C
Humidité: 94%
Baromètre: 1026 hPa
Nuages: Couvert
Visibilité: 10 km
Nuages details: Couvert 1067 m
2014/10/23 05:00 LFRN 230500Z AUTO VRB01KT 9999 OVC035 09/08 Q1026
LFCR - Rodez/, France
Distance de la station: SSE 277km
Mise à jour: 23/10/2014 07:00
partiellement nuageux
partiellement nuageux
 Wind from NO
Vent: NO 11 km/h
Température: 3°C
Wind Chill: 0°C
Point de Rosée: 2°C
Humidité: 93%
Baromètre: 1026 hPa
Nuages: partiellement nuageux
Visibilité: 10 km
2014/10/23 05:00 LFCR 230500Z AUTO 31006KT 9999 NSC 03/02 Q1026
 
LFYR - Romorantin/, France
Distance de la station: N 56km
Mise à jour: 23/10/2014 07:00
Couvert
Couvert
 Wind from S
Vent: S 2 km/h
Température: 8°C
Point de Rosée: 8°C
Humidité: 100%
Baromètre: 1026 hPa
Nuages: Couvert
Visibilité: 6 km
Nuages details: Couvert 1250 m
2014/10/23 05:00 LFYR 230500Z AUTO 18001KT 6000 OVC041 08/08 Q1026
LFOP - Rouen/, France
Distance de la station: N 286km
Mise à jour: 23/10/2014 07:00
Couvert
Couvert
 Wind from SO
Vent: SO 6 km/h
Température: 10°C
Point de Rosée: 7°C
Humidité: 82%
Baromètre: 1024 hPa
Nuages: Couvert
Visibilité: 10 km
Nuages details: Couvert 1036 m
2014/10/23 05:00 LFOP 230500Z AUTO 22003KT 9999 OVC034 10/07 Q1024
 
LFMY - Salon/, France
Distance de la station: SE 446km
Mise à jour: 23/10/2014 07:00
partiellement nuageux
partiellement nuageux
 Wind from NO
Vent: NO 17 km/h, Rafale: 41 km/h
Température: 11°C
Point de Rosée: 3°C
Humidité: 58%
Baromètre: 1018 hPa
Nuages: partiellement nuageux
Visibilité: 10 km
2014/10/23 05:00 LFMY 230500Z AUTO 32009G22KT 210V360 9999 NSC 11/03 Q1018
LFST - Strasbourg/, France
Distance de la station: ENE 483km
Mise à jour: 23/10/2014 07:00
Couvert
Couvert
 Wind from O
Vent: O 9 km/h
Température: 9°C
Wind Chill: 7°C
Point de Rosée: 6°C
Humidité: 82%
Baromètre: 1024 hPa
Nuages: Couvert
Visibilité: 10 km
Nuages details: Quelques Nuages 1707 m
Couvert 2012 m
2014/10/23 05:00 LFST 230500Z AUTO 27005KT 9999 FEW056 OVC066 09/06 Q1024
 
LFRT - Saint-Brieuc/, France
Distance de la station: ONO 388km
Mise à jour: 23/10/2014 07:00
Couvert
Couvert
 Wind from S
Vent: S 11 km/h
Température: 11°C
Point de Rosée: 8°C
Humidité: 82%
Baromètre: 1025 hPa
Nuages: Couvert
Visibilité: 10 km
Nuages details: Couvert 853 m
2014/10/23 05:00 LFRT 230500Z AUTO 19006KT 9999 OVC028 11/08 Q1025
LFSI - St. Dizier/, France
Distance de la station: NE 313km
Mise à jour: 23/10/2014 07:00
Couvert
Couvert
 Wind from variable
Vent: variable 4 km/h
Température: 8°C
Point de Rosée: 6°C
Humidité: 87%
Baromètre: 1025 hPa
Nuages: Couvert
Visibilité: 10 km
Nuages details: Quelques Nuages 1006 m
Couvert 1311 m
2014/10/23 05:00 LFSI 230500Z AUTO VRB02KT 9999 FEW033 OVC043 08/06 Q1025
 
LFMH - St Etienne/, France
Distance de la station: SE 247km
Mise à jour: 23/10/2014 07:00
nuageux
nuageux
 Wind from variable
Vent: variable 4 km/h
Température: 7°C
Point de Rosée: 5°C
Humidité: 87%
Baromètre: 1025 hPa
Nuages: nuageux
Visibilité: 10 km
Nuages details: partiellement nuageux 823 m
nuageux 1402 m
2014/10/23 05:00 LFMH 230500Z VRB02KT 9999 SCT027 BKN046 07/05 Q1025 NOSIG
LFRG - St Gatien/, France
Distance de la station: NNO 305km
Mise à jour: 23/10/2014 07:00
Couvert
Couvert
 Wind from OSO
Vent: OSO 9 km/h
Température: 11°C
Point de Rosée: 8°C
Humidité: 82%
Baromètre: 1025 hPa
Nuages: Couvert
Visibilité: 10 km
Nuages details: Couvert 1036 m
2014/10/23 05:00 LFRG 230500Z AUTO 24005KT 210V270 9999 OVC034 11/08 Q1025
 
LFRZ - St. Nazaire/, France
Distance de la station: ONO 297km
Mise à jour: 23/10/2014 07:00
nuageux
nuageux
 Wind from E
Vent: E 6 km/h
Température: 8°C
Point de Rosée: 7°C
Humidité: 93%
Baromètre: 1026 hPa
Nuages: nuageux
Visibilité: 8 km
Nuages details: nuageux 1006 m
2014/10/23 05:00 LFRZ 230500Z AUTO 08003KT 8000 BKN033 08/07 Q1026
LFLN - Saint Yan/, France
Distance de la station: ESE 184km
Mise à jour: 23/10/2014 07:00
nuageux
nuageux
 Wind from calm
Vent: Vent calme
Température: 9°C
Point de Rosée: 7°C
Humidité: 87%
Baromètre: 1026 hPa
Nuages: nuageux
Visibilité: 10 km
Nuages details: Quelques Nuages 975 m
nuageux 1951 m
2014/10/23 05:00 LFLN 230500Z AUTO 00000KT 9999 FEW032 BKN064 09/07 Q1026
 
LFBT - Tarbes/, France
Distance de la station: SSO 427km
Mise à jour: 23/10/2014 07:00
partiellement nuageux
partiellement nuageux
 Wind from S
Vent: S 7 km/h
Température: 5°C
Wind Chill: 3°C
Point de Rosée: 4°C
Humidité: 93%
Baromètre: 1027 hPa
Nuages: partiellement nuageux
Visibilité: 10 km
2014/10/23 05:00 LFBT 230500Z AUTO 17004KT 9999 NSC 05/04 Q1027
LFSL - Toul/, France
Distance de la station: NE 356km
Mise à jour: 23/10/2014 07:00
partiellement nuageux
partiellement nuageux
 Wind from calm
Vent: Vent calme
Température: 3°C
Point de Rosée: 2°C
Humidité: 93%
Baromètre: 1027 hPa
Nuages: partiellement nuageux
Visibilité: 10 km
2014/10/23 05:00 LFSL 230500Z AUTO 00000KT 9999 NSC 03/02 Q1027
 
LFBO - Toulouse/, France
Distance de la station: S 357km
Mise à jour: 23/10/2014 07:00
partiellement nuageux
partiellement nuageux
 Wind from SSO
Vent: SSO 7 km/h
Température: 6°C
Wind Chill: 4°C
Point de Rosée: 5°C
Humidité: 93%
Baromètre: 1027 hPa
Nuages: partiellement nuageux
Visibilité: 10 km
2014/10/23 05:00 LFBO 230500Z AUTO 20004KT 180V250 9999 NSC 06/05 Q1027
LFOT - Tours/, France
Distance de la station: NO 100km
Mise à jour: 23/10/2014 07:00
clair
clair
 Wind from OSO
Vent: OSO 6 km/h
Température: 7°C
Point de Rosée: 6°C
Humidité: 93%
Baromètre: 1026 hPa
Récapitulatifs: clair
Visibilité: supérieure à 10 km
2014/10/23 05:00 LFOT 230500Z 24003KT CAVOK 07/06 Q1026 NOSIG
 
LFPN - Toussus Le Noble/, France
Distance de la station: N 217km
Mise à jour: 23/10/2014 07:00
Couvert
Couvert
 Wind from OSO
Vent: OSO 9 km/h
Température: 10°C
Wind Chill: 9°C
Point de Rosée: 8°C
Humidité: 88%
Baromètre: 1025 hPa
Nuages: Couvert
Visibilité: 10 km
Nuages details: Couvert 1097 m
2014/10/23 05:00 LFPN 230500Z AUTO 25005KT 9999 OVC036 10/08 Q1025
LFPV - Villacoublay/, France
Distance de la station: N 220km
Mise à jour: 23/10/2014 07:00
Couvert
Couvert
 Wind from O
Vent: O 9 km/h
Température: 10°C
Wind Chill: 9°C
Point de Rosée: 8°C
Humidité: 88%
Baromètre: 1025 hPa
Nuages: Couvert
Visibilité: 10 km
Nuages details: Couvert 945 m
2014/10/23 05:00 LFPV 230500Z AUTO 26005KT 9999 OVC031 10/08 Q1025